createdAt,value
2019-04-06T00:04:59.164Z,6.60
2019-04-06T00:07:47.275Z,6.50
2019-04-06T00:10:35.314Z,6.50
2019-04-06T00:13:23.407Z,6.40
2019-04-06T00:16:11.582Z,6.30
2019-04-06T00:18:59.620Z,6.20
2019-04-06T00:21:47.657Z,6.30
2019-04-06T00:24:35.696Z,6.20
2019-04-06T00:27:24.731Z,6.10
2019-04-06T00:33:11.473Z,6.00
2019-04-06T00:35:59.509Z,6.10
2019-04-06T00:38:47.889Z,6.00
2019-04-06T00:41:35.968Z,6.00
2019-04-06T00:44:24.006Z,5.80
2019-04-06T00:47:12.104Z,5.80
2019-04-06T00:50:00.149Z,5.60
2019-04-06T00:52:48.426Z,5.60
2019-04-06T00:55:36.869Z,5.50
2019-04-06T00:58:24.982Z,5.30
2019-04-06T01:01:13.417Z,5.30
2019-04-06T01:04:01.450Z,5.30
2019-04-06T01:06:42.757Z,5.30
2019-04-06T01:09:23.973Z,5.20
2019-04-06T01:12:04.974Z,5.10
2019-04-06T01:14:45.646Z,5.00
2019-04-06T01:17:26.235Z,5.00
2019-04-06T01:20:07.085Z,4.80
2019-04-06T01:22:48.234Z,4.80
2019-04-06T01:25:28.502Z,4.70
2019-04-06T01:28:09.153Z,4.60
2019-04-06T01:30:49.970Z,4.60
2019-04-06T01:33:31.028Z,4.40
2019-04-06T01:36:11.886Z,4.40
2019-04-06T01:38:52.881Z,4.30
2019-04-06T01:41:33.610Z,4.30
2019-04-06T01:44:14.612Z,4.20
2019-04-06T01:46:55.566Z,4.10
2019-04-06T01:49:36.846Z,4.00
2019-04-06T01:52:18.062Z,4.00
2019-04-06T01:54:59.198Z,3.90
2019-04-06T01:57:40.481Z,3.80
2019-04-06T02:00:21.348Z,3.80
2019-04-06T02:03:01.910Z,3.70
2019-04-06T02:05:42.575Z,3.60
2019-04-06T02:08:23.270Z,3.60
2019-04-06T02:11:04.584Z,3.60
2019-04-06T02:13:45.817Z,3.40
2019-04-06T02:16:26.586Z,3.40
2019-04-06T02:19:07.227Z,3.30
2019-04-06T02:21:48.477Z,3.30
2019-04-06T02:24:28.894Z,3.20
2019-04-06T02:27:09.751Z,3.20
2019-04-06T02:33:17.224Z,3.10
2019-04-06T02:36:17.698Z,2.90
2019-04-06T02:39:17.725Z,2.90
2019-04-06T02:42:06.807Z,2.90
2019-04-06T02:44:47.305Z,2.90
2019-04-06T02:47:28.137Z,2.80
2019-04-06T02:50:08.843Z,2.70
2019-04-06T02:52:49.531Z,2.70
2019-04-06T02:55:30.730Z,2.60
2019-04-06T02:58:11.508Z,2.60
2019-04-06T03:00:52.406Z,2.60
2019-04-06T03:03:32.790Z,2.60
2019-04-06T03:06:13.679Z,2.50
2019-04-06T03:08:54.405Z,2.30
2019-04-06T03:11:35.003Z,2.40
2019-04-06T03:14:15.791Z,2.30
2019-04-06T03:16:56.350Z,2.30
2019-04-06T03:19:37.204Z,2.20
2019-04-06T03:22:18.319Z,2.10
2019-04-06T03:24:58.852Z,2.10
2019-04-06T03:27:39.318Z,2.10
2019-04-06T03:30:20.265Z,2.10
2019-04-06T03:33:01.055Z,1.90
2019-04-06T03:35:46.977Z,1.90
2019-04-06T03:38:24.215Z,1.90
2019-04-06T03:41:04.631Z,1.80
2019-04-06T03:43:45.378Z,1.80
2019-04-06T03:46:26.069Z,1.60
2019-04-06T03:49:07.117Z,1.70
2019-04-06T03:51:48.146Z,1.60
2019-04-06T03:54:29.191Z,1.60
2019-04-06T03:57:15.874Z,1.60
2019-04-06T03:59:52.987Z,1.60
2019-04-06T04:02:33.571Z,1.60
2019-04-06T04:05:14.332Z,1.60
2019-04-06T04:07:55.587Z,1.60
2019-04-06T04:10:36.417Z,1.80
2019-04-06T04:13:16.958Z,1.80
2019-04-06T04:15:57.967Z,2.00
2019-04-06T04:18:37.077Z,2.10
2019-04-06T04:21:25.190Z,2.20
2019-04-06T04:24:13.242Z,2.20
2019-04-06T04:27:01.309Z,2.40
2019-04-06T04:29:49.346Z,2.40
2019-04-06T04:32:37.383Z,2.40
2019-04-06T04:35:25.485Z,2.40
2019-04-06T04:38:13.520Z,2.40
2019-04-06T04:44:10.654Z,2.30
2019-04-06T04:46:58.690Z,2.30
2019-04-06T04:49:46.729Z,2.40
2019-04-06T04:52:34.833Z,2.40
2019-04-06T04:55:22.877Z,2.40
2019-04-06T04:58:10.994Z,2.40
2019-04-06T05:00:59.046Z,2.30
2019-04-06T05:03:47.092Z,2.50
2019-04-06T05:06:27.477Z,2.50
2019-04-06T05:09:08.260Z,2.50
2019-04-06T05:11:49.118Z,2.60
2019-04-06T05:14:29.756Z,2.60
2019-04-06T05:17:10.660Z,2.70
2019-04-06T05:19:51.702Z,2.70
2019-04-06T05:22:32.325Z,2.80
2019-04-06T05:25:13.266Z,2.90
2019-04-06T05:27:53.614Z,3.00
2019-04-06T05:30:34.265Z,3.00
2019-04-06T05:33:15.026Z,3.10
2019-04-06T05:35:56.039Z,3.30
2019-04-06T05:38:37.178Z,3.40
2019-04-06T05:41:17.566Z,3.50
2019-04-06T05:43:58.346Z,3.60
2019-04-06T05:46:38.843Z,3.70
2019-04-06T05:49:19.759Z,3.80
2019-04-06T05:52:00.470Z,3.90
2019-04-06T05:54:41.608Z,4.00
2019-04-06T05:57:22.662Z,4.10
2019-04-06T06:00:04.660Z,4.30
2019-04-06T06:02:45.378Z,4.40
2019-04-06T06:05:26.276Z,4.40
2019-04-06T06:08:05.402Z,4.50
2019-04-06T06:10:53.621Z,4.60
2019-04-06T06:13:41.652Z,4.70
2019-04-06T06:16:29.693Z,4.80
2019-04-06T06:19:17.740Z,4.80
2019-04-06T06:22:06.012Z,4.90
2019-04-06T06:24:54.308Z,5.00
2019-04-06T06:27:42.334Z,5.00
2019-04-06T06:30:30.376Z,5.00
2019-04-06T06:33:18.714Z,5.10
2019-04-06T06:36:06.853Z,5.20
2019-04-06T06:38:54.883Z,5.20
2019-04-06T06:41:42.916Z,5.30
2019-04-06T06:44:31.010Z,5.40
2019-04-06T06:47:19.268Z,5.60
2019-04-06T06:50:07.724Z,5.70
2019-04-06T06:52:57.198Z,5.80
2019-04-06T06:55:45.473Z,5.90
2019-04-06T06:58:33.484Z,6.00
2019-04-06T07:01:21.534Z,6.20
2019-04-06T07:04:09.806Z,6.30
2019-04-06T07:06:50.483Z,6.40
2019-04-06T07:09:29.663Z,6.50
2019-04-06T07:12:17.701Z,6.80
2019-04-06T07:15:06.218Z,6.90
2019-04-06T07:17:54.245Z,7.10
2019-04-06T07:20:42.409Z,7.20
2019-04-06T07:23:30.433Z,7.40
2019-04-06T07:26:18.555Z,7.90
2019-04-06T07:29:06.648Z,8.60
2019-04-06T07:31:54.703Z,9.20
2019-04-06T07:34:42.741Z,9.80
2019-04-06T07:37:31.108Z,10.60
2019-04-06T07:40:19.152Z,11.50
2019-04-06T07:43:07.522Z,12.10
2019-04-06T07:45:57.477Z,12.50
2019-04-06T07:48:47.213Z,12.70
2019-04-06T07:51:35.257Z,12.50
2019-04-06T07:57:32.416Z,12.80
2019-04-06T08:00:20.642Z,13.20
2019-04-06T08:03:08.646Z,13.00
2019-04-06T08:05:49.111Z,13.00
2019-04-06T08:08:30.436Z,13.20
2019-04-06T08:11:11.304Z,13.20
2019-04-06T08:13:51.690Z,12.90
2019-04-06T08:16:32.661Z,13.30
2019-04-06T08:19:13.547Z,13.20
2019-04-06T08:21:54.232Z,13.40
2019-04-06T08:24:34.905Z,13.80
2019-04-06T08:27:15.684Z,14.10
2019-04-06T08:29:56.099Z,14.40
2019-04-06T08:32:36.844Z,14.50
2019-04-06T08:35:25.640Z,14.20
2019-04-06T08:38:00.431Z,14.50
2019-04-06T08:40:41.360Z,14.60
2019-04-06T08:43:21.766Z,14.50
2019-04-06T08:46:02.530Z,14.40
2019-04-06T08:48:43.115Z,13.90
2019-04-06T08:51:23.873Z,13.80
2019-04-06T08:54:04.406Z,13.70
2019-04-06T08:56:44.901Z,13.30
2019-04-06T08:59:25.810Z,13.50
2019-04-06T09:02:06.521Z,13.40
2019-04-06T09:04:47.404Z,13.30
2019-04-06T09:07:28.234Z,13.20
2019-04-06T09:10:08.784Z,13.50
2019-04-06T09:12:49.604Z,14.10
2019-04-06T09:15:30.036Z,15.30
2019-04-06T09:18:10.684Z,16.60
2019-04-06T09:20:51.257Z,18.00
2019-04-06T09:23:32.196Z,18.50
2019-04-06T09:26:12.514Z,18.80
2019-04-06T09:28:53.313Z,18.30
2019-04-06T09:31:34.262Z,16.90
2019-04-06T09:34:15.006Z,16.30
2019-04-06T09:36:55.542Z,15.80
2019-04-06T09:39:36.258Z,16.00
2019-04-06T09:42:17.042Z,15.40
2019-04-06T09:45:16.987Z,17.00
2019-04-06T09:48:08.390Z,17.00
2019-04-06T09:51:13.701Z,17.30
2019-04-06T09:54:13.451Z,17.80
2019-04-06T09:57:13.705Z,17.40
2019-04-06T10:00:13.139Z,16.30
2019-04-06T10:03:12.594Z,16.30
2019-04-06T10:06:12.026Z,15.90
2019-04-06T10:09:01.821Z,16.00
2019-04-06T10:12:03.525Z,16.00
2019-04-06T10:15:03.272Z,17.80
2019-04-06T10:18:02.885Z,18.40
2019-04-06T10:20:53.405Z,19.40
2019-04-06T10:23:53.518Z,20.80
2019-04-06T10:26:42.286Z,20.10
2019-04-06T10:29:48.899Z,19.40
2019-04-06T10:32:44.805Z,19.70
2019-04-06T10:35:45.017Z,21.00
2019-04-06T10:38:50.848Z,19.90
2019-04-06T10:41:51.962Z,20.20
2019-04-06T10:44:51.546Z,20.20
2019-04-06T10:47:57.268Z,19.50
2019-04-06T10:51:03.224Z,21.90
2019-04-06T10:53:55.588Z,22.60
2019-04-06T10:56:45.424Z,22.40
2019-04-06T10:59:45.313Z,22.70
2019-04-06T11:02:45.540Z,23.90
2019-04-06T11:05:48.682Z,24.00
2019-04-06T11:08:48.608Z,23.30
2019-04-06T11:11:48.272Z,21.50
2019-04-06T11:14:47.750Z,21.10
2019-04-06T11:17:47.266Z,23.60
2019-04-06T11:20:37.806Z,23.10
2019-04-06T11:23:37.991Z,23.00
2019-04-06T11:26:37.502Z,23.20
2019-04-06T11:29:36.937Z,24.80
2019-04-06T11:32:33.592Z,23.40
2019-04-06T11:35:31.422Z,22.70
2019-04-06T11:38:24.217Z,23.20
2019-04-06T11:41:23.994Z,22.50
2019-04-06T11:44:24.303Z,24.20
2019-04-06T11:47:14.318Z,24.20
2019-04-06T11:50:14.434Z,24.40
2019-04-06T11:53:17.138Z,25.70
2019-04-06T11:56:18.586Z,25.40
2019-04-06T11:59:17.218Z,24.80
2019-04-06T12:02:17.393Z,24.80
2019-04-06T12:05:06.461Z,25.30
2019-04-06T12:08:00.345Z,27.30
2019-04-06T12:11:00.759Z,27.50
2019-04-06T12:13:49.950Z,26.30
2019-04-06T12:16:49.740Z,26.30
2019-04-06T12:19:37.866Z,25.60
2019-04-06T12:22:37.313Z,26.10
2019-04-06T12:25:37.043Z,25.80
2019-04-06T12:28:27.712Z,26.00
2019-04-06T12:31:15.198Z,25.60
2019-04-06T12:34:16.290Z,24.80
2019-04-06T12:37:15.919Z,26.40
2019-04-06T12:40:15.419Z,26.20
2019-04-06T12:43:07.541Z,25.00
2019-04-06T12:46:07.991Z,25.50
2019-04-06T12:49:12.296Z,25.80
2019-04-06T12:52:03.837Z,26.20
2019-04-06T12:54:56.616Z,26.40
2019-04-06T12:58:02.542Z,26.00
2019-04-06T13:01:02.053Z,24.80
2019-04-06T13:03:54.476Z,24.60
2019-04-06T13:06:54.462Z,24.70
2019-04-06T13:09:53.929Z,25.20
2019-04-06T13:12:51.161Z,25.70
2019-04-06T13:15:46.889Z,25.20
2019-04-06T13:18:44.242Z,24.30
2019-04-06T13:21:40.247Z,25.00
2019-04-06T13:24:41.766Z,25.50
2019-04-06T13:27:41.275Z,25.30
2019-04-06T13:30:34.376Z,22.40
2019-04-06T13:33:34.692Z,22.30
2019-04-06T13:36:34.721Z,23.50
2019-04-06T13:39:40.910Z,24.20
2019-04-06T13:42:40.379Z,23.60
2019-04-06T13:45:40.064Z,23.50
2019-04-06T13:48:41.154Z,23.60
2019-04-06T13:51:29.911Z,23.70
2019-04-06T13:54:29.954Z,22.60
2019-04-06T13:57:30.185Z,22.10
2019-04-06T14:00:19.939Z,22.10
2019-04-06T14:03:20.226Z,21.60
2019-04-06T14:06:18.688Z,21.70
2019-04-06T14:09:26.672Z,21.50
2019-04-06T14:12:34.051Z,21.30
2019-04-06T14:15:41.188Z,21.40
2019-04-06T14:18:48.385Z,21.10
2019-04-06T14:21:55.787Z,21.40
2019-04-06T14:25:02.962Z,21.70
2019-04-06T14:28:10.045Z,22.20
2019-04-06T14:31:27.293Z,22.10
2019-04-06T14:34:26.262Z,21.00
2019-04-06T14:37:33.350Z,20.40
2019-04-06T14:40:40.430Z,20.50
2019-04-06T14:43:47.722Z,20.80
2019-04-06T14:47:03.486Z,21.30
2019-04-06T14:50:03.606Z,21.10
2019-04-06T14:53:09.705Z,20.50
2019-04-06T14:56:09.202Z,19.80
2019-04-06T14:59:06.121Z,19.80
2019-04-06T15:02:15.069Z,19.80
2019-04-06T15:05:08.172Z,20.20
2019-04-06T15:07:57.958Z,20.40
2019-04-06T15:10:51.009Z,20.10
2019-04-06T15:13:40.885Z,20.00
2019-04-06T15:16:37.882Z,19.70
2019-04-06T15:19:45.024Z,19.60
2019-04-06T15:22:42.477Z,19.40
2019-04-06T15:25:49.570Z,19.40
2019-04-06T15:28:56.668Z,18.90
2019-04-06T15:31:55.537Z,18.60
2019-04-06T15:34:50.942Z,18.50
2019-04-06T15:37:58.013Z,18.50
2019-04-06T15:41:05.188Z,18.30
2019-04-06T15:44:12.316Z,18.40
2019-04-06T15:47:19.439Z,18.40
2019-04-06T15:50:15.103Z,18.00
2019-04-06T15:53:22.171Z,17.60
2019-04-06T15:56:29.339Z,17.30
2019-04-06T15:59:36.510Z,17.10
2019-04-06T16:02:43.590Z,16.90
2019-04-06T16:05:50.949Z,17.00
2019-04-06T16:08:54.176Z,17.00
2019-04-06T16:11:55.066Z,17.00
2019-04-06T16:14:58.330Z,17.00
2019-04-06T16:18:01.351Z,16.90
2019-04-06T16:20:58.938Z,16.80
2019-04-06T16:24:04.653Z,16.80
2019-04-06T16:27:03.536Z,16.70
2019-04-06T16:30:02.993Z,16.70
2019-04-06T16:33:02.765Z,16.50
2019-04-06T16:36:02.437Z,16.50
2019-04-06T16:39:09.547Z,16.40
2019-04-06T16:42:17.049Z,16.40
2019-04-06T16:45:24.358Z,16.40
2019-04-06T16:48:31.569Z,16.50
2019-04-06T16:51:38.782Z,16.30
2019-04-06T16:54:42.386Z,16.30
2019-04-06T16:57:49.996Z,16.10
2019-04-06T17:00:57.172Z,16.00
2019-04-06T17:03:45.672Z,15.90
2019-04-06T17:06:33.746Z,15.70
2019-04-06T17:09:35.002Z,15.60
2019-04-06T17:12:38.233Z,15.40
2019-04-06T17:15:38.036Z,15.30
2019-04-06T17:18:37.667Z,15.20
2019-04-06T17:21:29.135Z,15.00
2019-04-06T17:24:24.422Z,15.00
2019-04-06T17:30:11.120Z,14.70
2019-04-06T17:33:03.265Z,14.50
2019-04-06T17:36:03.550Z,14.50
2019-04-06T17:39:03.791Z,14.30
2019-04-06T17:42:01.182Z,14.10
2019-04-06T17:45:01.431Z,14.10
2019-04-06T17:48:01.236Z,13.90
2019-04-06T17:50:52.020Z,13.80
2019-04-06T17:53:52.094Z,13.70
2019-04-06T17:56:58.054Z,13.60
2019-04-06T17:59:58.896Z,13.40
2019-04-06T18:02:58.677Z,13.30
2019-04-06T18:09:22.142Z,12.90
2019-04-06T18:12:21.573Z,12.80
2019-04-06T18:15:02.331Z,12.60
2019-04-06T18:17:31.341Z,12.40
2019-04-06T18:20:19.665Z,12.30
2019-04-06T18:23:09.590Z,12.10
2019-04-06T18:25:58.970Z,11.90
2019-04-06T18:28:47.112Z,11.80
2019-04-06T18:31:54.206Z,11.70
2019-04-06T18:34:42.325Z,11.50
2019-04-06T18:40:38.397Z,11.40
2019-04-06T18:43:26.449Z,11.20
2019-04-06T18:46:15.912Z,11.20
2019-04-06T18:49:04.424Z,11.10
2019-04-06T18:51:52.737Z,11.00
2019-04-06T18:54:40.785Z,10.90
2019-04-06T18:57:29.193Z,10.80
2019-04-06T19:00:17.593Z,10.80
2019-04-06T19:03:14.212Z,10.70
2019-04-06T19:05:49.884Z,10.60
2019-04-06T19:08:30.867Z,10.50
2019-04-06T19:11:00.041Z,10.40
2019-04-06T19:13:49.885Z,10.30
2019-04-06T19:16:39.277Z,10.20
2019-04-06T19:19:27.365Z,10.20
2019-04-06T19:22:15.481Z,10.10
2019-04-06T19:25:03.773Z,10.00
2019-04-06T19:27:51.930Z,10.00
2019-04-06T19:30:40.078Z,9.90
2019-04-06T19:33:30.537Z,9.80
2019-04-06T19:36:20.401Z,9.70
2019-04-06T19:39:30.777Z,9.60
2019-04-06T19:42:20.465Z,9.50
2019-04-06T19:45:10.441Z,9.40
2019-04-06T19:47:58.709Z,9.40
2019-04-06T19:50:46.866Z,9.30
2019-04-06T19:53:35.173Z,9.30
2019-04-06T19:56:23.342Z,9.20
2019-04-06T19:59:12.957Z,9.10
2019-04-06T20:02:01.281Z,9.10
2019-04-06T20:04:49.335Z,9.10
2019-04-06T20:07:29.989Z,9.00
2019-04-06T20:10:11.076Z,9.20
2019-04-06T20:16:14.093Z,9.20
2019-04-06T20:18:55.465Z,9.10
2019-04-06T20:21:36.181Z,9.10
2019-04-06T20:24:17.136Z,9.00
2019-04-06T20:26:58.868Z,9.00
2019-04-06T20:29:40.077Z,9.00
2019-04-06T20:32:21.593Z,9.00
2019-04-06T20:35:02.434Z,8.90
2019-04-06T20:37:43.366Z,8.90
2019-04-06T20:40:24.270Z,8.80
2019-04-06T20:43:05.446Z,8.80
2019-04-06T20:45:46.684Z,8.70
2019-04-06T20:48:27.314Z,8.70
2019-04-06T20:51:08.054Z,8.60
2019-04-06T20:53:48.794Z,8.60
2019-04-06T20:56:28.295Z,8.50
2019-04-06T20:59:16.766Z,8.50
2019-04-06T21:02:06.144Z,8.50
2019-04-06T21:04:54.422Z,8.50
2019-04-06T21:07:35.334Z,8.30
2019-04-06T21:10:16.439Z,8.40
2019-04-06T21:12:57.877Z,8.40
2019-04-06T21:15:39.528Z,8.30
2019-04-06T21:18:20.987Z,8.30
2019-04-06T21:21:01.301Z,8.30
2019-04-06T21:23:42.197Z,8.10
2019-04-06T21:26:22.595Z,8.10
2019-04-06T21:29:03.674Z,8.10
2019-04-06T21:31:44.751Z,8.00
2019-04-06T21:34:26.035Z,8.00
2019-04-06T21:37:07.147Z,7.90
2019-04-06T21:39:48.305Z,7.90
2019-04-06T21:42:29.610Z,7.90
2019-04-06T21:45:11.092Z,7.90
2019-04-06T21:47:51.521Z,7.80
2019-04-06T21:50:32.207Z,7.80
2019-04-06T21:53:12.886Z,7.90
2019-04-06T21:56:02.156Z,7.90
2019-04-06T21:58:36.475Z,7.90
2019-04-06T22:01:17.341Z,7.90
2019-04-06T22:03:58.629Z,7.90
2019-04-06T22:06:39.309Z,7.90
2019-04-06T22:09:19.907Z,7.80
2019-04-06T22:12:00.795Z,7.90
2019-04-06T22:14:41.670Z,7.80
2019-04-06T22:17:22.454Z,7.90
2019-04-06T22:20:03.180Z,7.80
2019-04-06T22:22:43.850Z,7.80
2019-04-06T22:25:24.499Z,7.80
2019-04-06T22:28:05.206Z,7.80
2019-04-06T22:30:45.977Z,7.70
2019-04-06T22:33:26.649Z,7.60
2019-04-06T22:36:07.703Z,7.60
2019-04-06T22:38:49.183Z,7.70
2019-04-06T22:41:31.062Z,7.70
2019-04-06T22:44:12.015Z,7.70
2019-04-06T22:46:53.086Z,7.70
2019-04-06T22:49:32.202Z,7.80
2019-04-06T22:52:20.535Z,7.80
2019-04-06T22:55:10.194Z,7.80
2019-04-06T22:57:58.494Z,7.80
2019-04-06T23:04:03.101Z,7.80
2019-04-06T23:09:40.526Z,7.60
2019-04-06T23:12:22.159Z,7.60
2019-04-06T23:15:02.674Z,7.50
2019-04-06T23:17:42.325Z,7.40
2019-04-06T23:20:30.358Z,7.30
2019-04-06T23:23:18.478Z,7.20
2019-04-06T23:26:06.626Z,7.10
2019-04-06T23:28:55.028Z,7.00
2019-04-06T23:31:43.164Z,7.00
2019-04-06T23:34:31.297Z,6.90
2019-04-06T23:37:19.633Z,6.80
2019-04-06T23:40:07.731Z,6.80
2019-04-06T23:42:55.901Z,6.60
2019-04-06T23:45:45.845Z,6.60
2019-04-06T23:48:33.880Z,6.50
2019-04-06T23:51:22.186Z,6.40
2019-04-06T23:54:10.486Z,6.30
2019-04-06T23:56:59.163Z,6.20
2019-04-06T23:59:48.879Z,6.10
